LKZB weather

Zbraslavice Airport
Zbraslavice, Central Bohemian Region, Czechia

Public forecast

Using degrees Celsius for public forecast. Weather courtesy of forecast.io.

METAR (pilot weather report)

Closest report is Čáslav Air Base, 10.3 nm (19.0 km) NE. Retrieved 2019/05/26 10:00 UTC (27 minutes ago):

LKCV 261000Z VRB02KT 9999 FEW030 19/11 Q1015 NOSIG RMK BLU BLU

TAF (pilot weather forecast)

Closest forecast is Čáslav Air Base, 10.3 nm (19.0 km) NE. Retrieved 2019/05/26 06:06 UTC (4 hours ago):

TAF LKCV 260500Z 2606/2706 VRB02KT CAVOK BECMG 2608/2611 25006KT TEMPO 2609/2613 BKN040 PROB30 TEMPO 2611/2616 25016G26KT SCT035TCU